createdAt,value
2019-01-25T00:02:02.673Z,71.77
2019-01-25T00:04:34.002Z,72.83
2019-01-25T00:07:05.406Z,64.77
2019-01-25T00:09:38.623Z,70.17
2019-01-25T00:12:10.125Z,75.37
2019-01-25T00:14:41.705Z,72.27
2019-01-25T00:17:13.552Z,66.63
2019-01-25T00:19:45.029Z,68.50
2019-01-25T00:22:16.398Z,76.93
2019-01-25T00:24:47.810Z,89.33
2019-01-25T00:27:19.193Z,66.47
2019-01-25T00:29:50.616Z,85.70
2019-01-25T00:32:22.054Z,78.83
2019-01-25T00:34:53.452Z,67.87
2019-01-25T00:37:24.810Z,79.20
2019-01-25T00:39:56.237Z,62.17
2019-01-25T00:42:27.755Z,73.97
2019-01-25T00:44:59.165Z,72.63
2019-01-25T00:47:30.533Z,76.93
2019-01-25T00:50:01.939Z,66.73
2019-01-25T00:52:33.342Z,67.57
2019-01-25T00:55:05.546Z,78.27
2019-01-25T00:57:37.982Z,79.53
2019-01-25T01:00:20.871Z,73.77
2019-01-25T01:02:52.342Z,76.07
2019-01-25T01:05:24.250Z,73.00
2019-01-25T01:07:55.653Z,73.27
2019-01-25T01:10:27.153Z,68.40
2019-01-25T01:12:58.484Z,73.00
2019-01-25T01:15:29.816Z,87.07
2019-01-25T01:18:01.172Z,79.80
2019-01-25T01:20:32.490Z,77.57
2019-01-25T01:23:03.823Z,79.03
2019-01-25T01:25:35.148Z,73.47
2019-01-25T01:28:06.777Z,78.23
2019-01-25T01:30:38.190Z,72.23
2019-01-25T01:33:09.554Z,72.47
2019-01-25T01:35:40.861Z,68.53
2019-01-25T01:38:12.154Z,77.30
2019-01-25T01:40:43.475Z,76.53
2019-01-25T01:43:15.821Z,74.43
2019-01-25T01:45:47.154Z,72.57
2019-01-25T01:48:18.481Z,63.00
2019-01-25T01:50:49.970Z,69.27
2019-01-25T01:53:21.282Z,68.00
2019-01-25T01:55:52.598Z,73.63
2019-01-25T01:58:23.951Z,64.43
2019-01-25T03:02:25.413Z,54.93
2019-01-25T03:04:56.672Z,56.43
2019-01-25T03:07:28.285Z,63.17
2019-01-25T03:09:59.557Z,58.53
2019-01-25T03:12:30.900Z,60.23
2019-01-25T03:15:02.188Z,60.90
2019-01-25T03:17:33.662Z,59.93
2019-01-25T03:20:06.240Z,62.80
2019-01-25T03:22:37.701Z,60.97
2019-01-25T03:25:11.198Z,76.07
2019-01-25T03:27:42.456Z,67.80
2019-01-25T03:30:15.921Z,72.83
2019-01-25T03:32:47.323Z,63.53
2019-01-25T03:35:19.897Z,64.30
2019-01-25T03:37:51.263Z,65.47
2019-01-25T03:40:32.337Z,65.70
2019-01-25T03:43:03.633Z,63.67
2019-01-25T03:45:34.867Z,56.90
2019-01-25T03:48:07.229Z,63.33
2019-01-25T03:50:38.491Z,64.50
2019-01-25T03:53:09.701Z,53.73
2019-01-25T03:55:40.972Z,56.83
2019-01-25T03:58:12.263Z,51.43
2019-01-25T04:00:43.736Z,58.47
2019-01-25T04:03:15.022Z,64.53
2019-01-25T04:05:46.282Z,63.00
2019-01-25T04:08:17.541Z,60.83
2019-01-25T04:10:48.889Z,62.07
2019-01-25T04:13:20.153Z,58.80
2019-01-25T04:15:51.461Z,69.47
2019-01-25T04:18:22.733Z,70.67
2019-01-25T04:20:54.156Z,73.73
2019-01-25T04:23:25.784Z,73.17
2019-01-25T04:25:58.145Z,59.90
2019-01-25T04:28:29.414Z,61.93
2019-01-25T04:31:00.682Z,62.33
2019-01-25T04:33:31.971Z,70.13
2019-01-25T04:36:03.283Z,58.77
2019-01-25T04:38:34.549Z,68.27
2019-01-25T04:41:11.501Z,68.30
2019-01-25T04:43:39.260Z,66.97
2019-01-25T04:46:10.578Z,67.40
2019-01-25T04:48:41.865Z,65.07
2019-01-25T04:51:13.152Z,65.63
2019-01-25T04:53:45.461Z,57.47
2019-01-25T04:56:16.770Z,59.63
2019-01-25T04:58:48.465Z,63.23
2019-01-25T05:01:19.777Z,53.63
2019-01-25T05:03:51.074Z,60.43
2019-01-25T05:06:22.340Z,68.93
2019-01-25T05:08:53.614Z,65.20
2019-01-25T05:11:25.066Z,60.87
2019-01-25T05:13:56.343Z,64.43
2019-01-25T05:16:27.607Z,67.67
2019-01-25T05:18:58.877Z,68.50
2019-01-25T05:21:30.581Z,60.83
2019-01-25T05:24:09.252Z,66.60
2019-01-25T05:26:40.589Z,57.70
2019-01-25T05:29:11.849Z,60.30
2019-01-25T05:31:43.147Z,101.17
2019-01-25T05:34:14.536Z,80.47
2019-01-25T05:36:45.770Z,79.67
2019-01-25T05:39:17.034Z,62.00
2019-01-25T05:41:52.864Z,61.67
2019-01-25T05:44:24.124Z,69.27
2019-01-25T05:46:55.381Z,57.07
2019-01-25T05:49:26.638Z,56.20
2019-01-25T05:51:58.338Z,60.40
2019-01-25T05:54:29.776Z,56.27
2019-01-25T05:57:01.045Z,55.13
2019-01-25T05:59:32.310Z,53.90
2019-01-25T06:02:04.803Z,61.00
2019-01-25T06:04:37.234Z,53.37
2019-01-25T06:07:08.653Z,51.93
2019-01-25T06:09:39.992Z,52.33
2019-01-25T06:12:11.265Z,52.43
2019-01-25T06:14:42.525Z,56.50
2019-01-25T06:17:14.028Z,58.93
2019-01-25T06:19:45.325Z,60.00
2019-01-25T06:22:16.584Z,79.57
2019-01-25T06:24:49.437Z,65.53
2019-01-25T06:27:20.687Z,60.20
2019-01-25T06:29:51.958Z,56.97
2019-01-25T06:32:23.213Z,51.67
2019-01-25T06:34:54.467Z,49.13
2019-01-25T06:37:25.713Z,48.40
2019-01-25T06:39:56.989Z,51.43
2019-01-25T06:42:28.268Z,56.03
2019-01-25T06:44:59.605Z,59.03
2019-01-25T06:47:30.825Z,52.90
2019-01-25T06:50:02.253Z,56.57
2019-01-25T06:52:33.541Z,57.07
2019-01-25T06:55:05.255Z,58.70
2019-01-25T06:57:43.234Z,60.03
2019-01-25T07:00:16.321Z,56.60
2019-01-25T07:02:47.601Z,50.80
2019-01-25T07:05:18.870Z,56.07
2019-01-25T07:07:50.161Z,62.90
2019-01-25T07:10:21.744Z,50.83
2019-01-25T07:12:53.193Z,54.50
2019-01-25T07:15:24.877Z,58.40
2019-01-25T07:17:56.151Z,55.67
2019-01-25T07:20:27.404Z,47.70
2019-01-25T07:22:58.676Z,47.70
2019-01-25T07:25:29.931Z,46.07
2019-01-25T07:28:01.202Z,44.07
2019-01-25T07:30:32.617Z,57.73
2019-01-25T07:33:03.993Z,47.03
2019-01-25T07:35:35.301Z,49.73
2019-01-25T07:38:06.641Z,45.23
2019-01-25T07:40:37.961Z,50.27
2019-01-25T07:43:09.329Z,44.17
2019-01-25T07:45:40.741Z,51.30
2019-01-25T07:48:12.025Z,51.73
2019-01-25T07:50:43.389Z,56.43
2019-01-25T07:53:14.717Z,47.77
2019-01-25T07:55:46.590Z,48.30
2019-01-25T07:58:18.149Z,52.47
2019-01-25T08:00:49.417Z,52.43
2019-01-25T08:03:20.771Z,54.20
2019-01-25T08:05:52.049Z,50.10
2019-01-25T08:08:23.333Z,54.17
2019-01-25T08:10:54.691Z,57.70
2019-01-25T08:13:25.961Z,57.60
2019-01-25T08:15:57.230Z,52.23
2019-01-25T08:18:28.561Z,57.63
2019-01-25T08:20:59.822Z,55.73
2019-01-25T08:23:31.110Z,52.80
2019-01-25T08:26:02.577Z,50.13
2019-01-25T08:28:33.819Z,49.53
2019-01-25T08:31:05.201Z,50.23
2019-01-25T08:33:36.481Z,52.17
2019-01-25T08:36:07.989Z,56.40
2019-01-25T08:38:39.329Z,55.33
2019-01-25T08:41:10.609Z,54.87
2019-01-25T08:43:41.950Z,60.37
2019-01-25T08:46:13.315Z,57.23
2019-01-25T08:48:44.558Z,61.73
2019-01-25T08:51:16.060Z,51.07
2019-01-25T08:53:47.391Z,46.17
2019-01-25T08:56:18.661Z,49.07
2019-01-25T08:58:50.152Z,43.97
2019-01-25T09:01:21.408Z,45.17
2019-01-25T09:03:52.814Z,47.43
2019-01-25T09:06:24.251Z,61.17
2019-01-25T09:08:55.492Z,61.33
2019-01-25T09:11:26.801Z,52.00
2019-01-25T09:13:58.105Z,55.60
2019-01-25T09:16:29.365Z,70.97
2019-01-25T09:19:00.642Z,59.20
2019-01-25T09:21:31.888Z,53.00
2019-01-25T09:24:03.161Z,52.43
2019-01-25T09:26:34.467Z,60.63
2019-01-25T09:29:05.893Z,65.67
2019-01-25T09:31:37.353Z,56.00
2019-01-25T09:34:08.629Z,58.33
2019-01-25T09:36:39.917Z,54.77
2019-01-25T09:39:11.378Z,57.90
2019-01-25T09:41:42.660Z,58.20
2019-01-25T09:44:13.932Z,60.97
2019-01-25T09:46:45.485Z,55.57
2019-01-25T09:49:17.593Z,55.33
2019-01-25T09:51:48.943Z,57.73
2019-01-25T09:54:20.208Z,56.80
2019-01-25T09:56:52.482Z,59.47
2019-01-25T09:59:24.720Z,58.87
2019-01-25T10:01:56.022Z,55.40
2019-01-25T10:04:27.398Z,52.53
2019-01-25T10:06:58.686Z,57.37
2019-01-25T10:09:29.991Z,57.00
2019-01-25T10:12:01.249Z,69.40
2019-01-25T10:14:32.515Z,61.80
2019-01-25T10:17:03.887Z,59.53
2019-01-25T10:19:35.309Z,72.23
2019-01-25T10:22:06.748Z,61.13
2019-01-25T10:24:38.476Z,58.33
2019-01-25T10:27:10.041Z,57.93
2019-01-25T10:29:41.303Z,61.70
2019-01-25T10:32:12.681Z,64.17
2019-01-25T10:34:43.945Z,67.83
2019-01-25T10:37:15.241Z,70.47
2019-01-25T10:39:46.548Z,69.33
2019-01-25T10:42:17.803Z,55.57
2019-01-25T10:44:49.085Z,70.73
2019-01-25T10:47:20.359Z,66.53
2019-01-25T10:49:51.656Z,69.33
2019-01-25T10:52:23.513Z,60.00
2019-01-25T10:54:54.780Z,65.00
2019-01-25T10:57:26.214Z,62.50
2019-01-25T10:59:57.485Z,68.53
2019-01-25T11:02:28.727Z,62.93
2019-01-25T11:05:00.024Z,69.30
2019-01-25T11:07:31.704Z,71.83
2019-01-25T11:10:02.984Z,66.70
2019-01-25T11:12:34.242Z,71.77
2019-01-25T11:15:06.546Z,68.90
2019-01-25T11:17:37.839Z,61.83
2019-01-25T11:20:12.629Z,67.30
2019-01-25T11:22:43.933Z,57.90
2019-01-25T11:25:27.036Z,58.87
2019-01-25T11:28:16.327Z,56.60
2019-01-25T11:30:54.242Z,62.77
2019-01-25T11:33:49.091Z,67.47
2019-01-25T11:36:32.739Z,61.23
2019-01-25T11:39:08.876Z,59.97
2019-01-25T11:41:55.898Z,72.00
2019-01-25T11:44:43.536Z,75.13
2019-01-25T11:47:20.186Z,64.83
2019-01-25T11:49:59.939Z,71.70
2019-01-25T11:52:45.266Z,77.70
2019-01-25T11:55:24.742Z,70.23
2019-01-25T11:58:02.141Z,90.40
2019-01-25T12:00:45.848Z,72.43
2019-01-25T12:03:19.259Z,73.07
2019-01-25T12:05:57.756Z,88.53
2019-01-25T12:08:39.257Z,82.20
2019-01-25T12:11:21.986Z,76.97
2019-01-25T12:13:54.459Z,76.73
2019-01-25T12:16:36.917Z,74.60
2019-01-25T12:19:12.850Z,78.50
2019-01-25T12:21:46.313Z,83.63
2019-01-25T12:24:19.919Z,67.53
2019-01-25T12:26:56.564Z,60.83
2019-01-25T12:29:41.429Z,70.07
2019-01-25T12:32:20.789Z,68.40
2019-01-25T12:35:09.433Z,72.33
2019-01-25T12:37:47.733Z,70.33
2019-01-25T12:40:20.356Z,68.57
2019-01-25T12:42:57.182Z,69.00
2019-01-25T12:45:35.000Z,68.60
2019-01-25T12:48:21.281Z,60.93
2019-01-25T12:51:12.093Z,69.63
2019-01-25T12:53:45.797Z,60.73
2019-01-25T12:56:19.389Z,64.47
2019-01-25T12:58:59.850Z,62.50
2019-01-25T13:01:41.542Z,65.87
2019-01-25T13:04:17.037Z,72.87
2019-01-25T13:06:53.764Z,72.73
2019-01-25T13:09:26.352Z,71.40
2019-01-25T13:12:04.325Z,62.20
2019-01-25T13:14:45.246Z,65.10
2019-01-25T13:17:19.119Z,65.63
2019-01-25T13:20:05.108Z,67.40
2019-01-25T13:22:44.998Z,68.47
2019-01-25T13:25:27.669Z,77.57
2019-01-25T13:28:11.322Z,75.10
2019-01-25T13:30:56.750Z,73.83
2019-01-25T13:33:32.316Z,67.33
2019-01-25T13:36:15.165Z,72.10
2019-01-25T13:38:50.579Z,63.17
2019-01-25T13:41:27.373Z,71.67
2019-01-25T13:44:02.774Z,75.43
2019-01-25T13:46:40.332Z,77.70
2019-01-25T13:49:30.496Z,70.03
2019-01-25T13:52:04.578Z,76.70
2019-01-25T13:54:42.368Z,77.07
2019-01-25T13:57:23.259Z,73.73
2019-01-25T14:00:01.601Z,73.97
2019-01-25T14:02:42.257Z,71.50
2019-01-25T14:05:17.512Z,81.90
2019-01-25T14:07:55.841Z,79.17
2019-01-25T14:10:37.567Z,73.67
2019-01-25T14:13:16.678Z,85.07
2019-01-25T14:15:55.905Z,79.53
2019-01-25T14:18:47.243Z,67.23
2019-01-25T14:21:24.739Z,73.33
2019-01-25T14:23:57.201Z,78.00
2019-01-25T14:26:35.053Z,65.60
2019-01-25T14:29:08.862Z,71.03
2019-01-25T14:31:48.872Z,68.93
2019-01-25T14:34:24.766Z,72.73
2019-01-25T14:37:03.272Z,81.87
2019-01-25T14:39:35.748Z,70.57
2019-01-25T14:42:18.154Z,78.43
2019-01-25T14:44:53.158Z,80.10
2019-01-25T14:47:35.391Z,72.33
2019-01-25T14:50:16.779Z,70.30
2019-01-25T14:52:53.046Z,72.00
2019-01-25T14:55:25.721Z,76.10
2019-01-25T14:58:03.123Z,79.20
2019-01-25T15:00:41.126Z,79.73
2019-01-25T15:03:20.402Z,73.43
2019-01-25T15:05:58.303Z,70.43
2019-01-25T15:08:34.303Z,77.43
2019-01-25T15:11:15.715Z,69.90
2019-01-25T15:13:52.568Z,64.13
2019-01-25T15:16:29.649Z,73.00
2019-01-25T15:19:02.159Z,79.50
2019-01-25T15:21:35.850Z,72.10
2019-01-25T15:24:18.264Z,68.27
2019-01-25T15:27:02.482Z,67.87
2019-01-25T15:29:42.024Z,69.40
2019-01-25T15:32:18.675Z,72.40
2019-01-25T15:34:59.284Z,66.43
2019-01-25T15:37:39.568Z,72.80
2019-01-25T15:40:15.843Z,68.97
2019-01-25T15:42:50.268Z,67.90
2019-01-25T15:45:22.882Z,70.90
2019-01-25T15:48:04.888Z,66.57
2019-01-25T15:50:40.526Z,73.80
2019-01-25T15:53:15.880Z,78.90
2019-01-25T15:56:09.943Z,65.53
2019-01-25T15:58:51.211Z,69.57
2019-01-25T16:01:33.634Z,63.70
2019-01-25T16:04:10.515Z,67.60
2019-01-25T16:06:45.648Z,67.00
2019-01-25T16:09:23.652Z,69.63
2019-01-25T16:12:05.555Z,67.37
2019-01-25T16:14:38.538Z,71.83
2019-01-25T16:17:30.058Z,79.03
2019-01-25T16:20:08.849Z,65.20
2019-01-25T16:22:51.622Z,65.63
2019-01-25T16:25:45.567Z,63.90
2019-01-25T16:28:20.708Z,66.67
2019-01-25T16:31:19.290Z,71.43
2019-01-25T16:34:29.992Z,68.93
2019-01-25T16:37:06.837Z,61.80
2019-01-25T16:39:41.360Z,61.73
2019-01-25T16:42:31.306Z,70.70
2019-01-25T16:45:28.240Z,58.70
2019-01-25T16:48:34.540Z,59.00
2019-01-25T16:51:12.978Z,77.90
2019-01-25T16:53:57.930Z,64.07
2019-01-25T16:56:37.486Z,61.97
2019-01-25T16:59:19.893Z,61.67
2019-01-25T17:02:04.326Z,56.43
2019-01-25T17:04:53.497Z,52.37
2019-01-25T17:08:22.361Z,51.00
2019-01-25T17:10:55.845Z,54.13
2019-01-25T17:13:32.183Z,51.17
2019-01-25T17:16:03.445Z,65.73
2019-01-25T17:18:34.998Z,51.83
2019-01-25T17:21:06.234Z,46.50
2019-01-25T17:23:38.174Z,43.37
2019-01-25T17:26:09.762Z,42.97
2019-01-25T17:28:42.333Z,40.50
2019-01-25T17:31:13.615Z,46.83
2019-01-25T17:33:44.934Z,42.17
2019-01-25T17:36:16.516Z,38.37
2019-01-25T17:38:47.749Z,45.93
2019-01-25T17:41:19.139Z,42.43
2019-01-25T17:43:50.445Z,42.77
2019-01-25T17:46:25.571Z,38.77
2019-01-25T17:48:59.232Z,34.23
2019-01-25T17:51:31.652Z,33.53
2019-01-25T17:54:03.856Z,42.23
2019-01-25T17:56:36.205Z,31.50
2019-01-25T17:59:08.002Z,31.33
2019-01-25T18:01:40.315Z,30.40
2019-01-25T18:04:16.423Z,33.00
2019-01-25T18:06:58.035Z,27.00
2019-01-25T18:09:33.069Z,24.87
2019-01-25T18:12:05.772Z,26.73
2019-01-25T18:14:39.812Z,29.90
2019-01-25T18:17:12.693Z,23.67
2019-01-25T18:19:52.045Z,26.13
2019-01-25T18:22:25.474Z,27.83
2019-01-25T18:24:59.328Z,24.90
2019-01-25T18:27:33.179Z,31.00
2019-01-25T18:30:15.662Z,32.20
2019-01-25T18:32:49.818Z,27.30
2019-01-25T18:35:21.322Z,24.40
2019-01-25T18:37:54.733Z,30.17
2019-01-25T18:40:26.286Z,25.47
2019-01-25T18:42:58.751Z,26.17
2019-01-25T18:45:31.549Z,24.57
2019-01-25T18:48:03.663Z,26.10
2019-01-25T18:50:36.093Z,26.20
2019-01-25T18:53:07.557Z,31.30
2019-01-25T18:55:39.110Z,29.67
2019-01-25T18:58:10.971Z,27.40
2019-01-25T19:00:42.418Z,33.07
2019-01-25T19:03:13.806Z,31.73
2019-01-25T19:05:48.448Z,23.17
2019-01-25T19:08:20.005Z,32.40
2019-01-25T19:10:51.550Z,37.87
2019-01-25T19:13:22.967Z,29.40
2019-01-25T19:15:55.843Z,28.27
2019-01-25T19:18:27.275Z,30.17
2019-01-25T19:20:58.855Z,29.00
2019-01-25T19:23:32.831Z,30.07
2019-01-25T19:26:04.402Z,26.73
2019-01-25T19:28:35.826Z,27.70
2019-01-25T19:31:07.199Z,31.27
2019-01-25T19:33:38.742Z,27.67
2019-01-25T19:36:10.167Z,33.43
2019-01-25T19:38:45.250Z,35.07
2019-01-25T19:41:17.339Z,34.53
2019-01-25T19:43:50.166Z,34.07
2019-01-25T19:46:22.828Z,36.43
2019-01-25T19:48:54.171Z,42.10
2019-01-25T19:51:26.435Z,38.50
2019-01-25T19:53:58.954Z,40.90
2019-01-25T19:56:31.301Z,42.37
2019-01-25T19:59:03.936Z,34.53
2019-01-25T20:01:36.484Z,38.87
2019-01-25T20:04:08.278Z,36.53
2019-01-25T20:06:40.855Z,40.70
2019-01-25T20:09:13.532Z,41.90
2019-01-25T20:11:44.904Z,41.83
2019-01-25T20:14:16.701Z,42.07
2019-01-25T20:16:48.049Z,34.07
2019-01-25T20:19:19.410Z,33.23
2019-01-25T20:21:51.673Z,41.37
2019-01-25T20:24:23.399Z,37.97
2019-01-25T20:26:54.956Z,33.73
2019-01-25T20:29:27.559Z,36.10
2019-01-25T20:31:59.952Z,36.07
2019-01-25T20:34:33.402Z,30.93
2019-01-25T20:37:06.513Z,36.80
2019-01-25T20:39:38.526Z,33.97
2019-01-25T20:42:10.860Z,35.80
2019-01-25T20:44:42.561Z,34.33
2019-01-25T20:47:14.229Z,35.47
2019-01-25T20:49:46.496Z,40.87
2019-01-25T20:52:21.089Z,34.67
2019-01-25T20:54:53.622Z,33.53
2019-01-25T20:57:25.430Z,35.43
2019-01-25T20:59:57.733Z,43.60
2019-01-25T21:02:29.843Z,39.67
2019-01-25T21:05:01.618Z,37.40
2019-01-25T21:07:33.421Z,37.47
2019-01-25T21:10:07.012Z,41.90
2019-01-25T21:12:39.617Z,38.90
2019-01-25T21:15:12.696Z,41.57
2019-01-25T21:17:44.487Z,33.37
2019-01-25T21:20:21.263Z,37.47
2019-01-25T21:22:53.684Z,38.00
2019-01-25T21:25:25.298Z,37.50
2019-01-25T21:27:57.680Z,33.00
2019-01-25T21:30:30.777Z,37.03
2019-01-25T21:33:02.192Z,38.07
2019-01-25T21:35:34.251Z,37.70
2019-01-25T21:38:06.288Z,36.07
2019-01-25T21:40:37.745Z,38.40
2019-01-25T21:43:09.193Z,37.47
2019-01-25T21:45:43.222Z,34.63
2019-01-25T21:48:17.824Z,36.83
2019-01-25T21:50:49.468Z,28.47
2019-01-25T21:53:21.711Z,29.50
2019-01-25T21:55:53.056Z,33.47
2019-01-25T21:58:24.346Z,29.83
2019-01-25T22:00:56.906Z,32.70
2019-01-25T22:03:29.256Z,30.03
2019-01-25T22:06:00.575Z,29.97
2019-01-25T22:08:31.892Z,32.67
2019-01-25T22:11:03.337Z,32.07
2019-01-25T22:13:34.623Z,30.23
2019-01-25T22:16:07.017Z,30.50
2019-01-25T22:18:38.431Z,31.33
2019-01-25T22:21:09.793Z,25.03
2019-01-25T22:23:41.409Z,24.00
2019-01-25T22:26:12.734Z,23.23
2019-01-25T22:28:43.976Z,31.73
2019-01-25T22:31:15.265Z,26.53
2019-01-25T22:33:47.845Z,27.07
2019-01-25T22:36:19.164Z,29.27
2019-01-25T22:38:50.577Z,23.37
2019-01-25T22:41:21.988Z,25.53
2019-01-25T22:43:53.252Z,23.77
2019-01-25T22:46:24.922Z,21.63
2019-01-25T22:48:56.401Z,25.30
2019-01-25T22:51:27.781Z,24.70
2019-01-25T22:53:58.986Z,24.13
2019-01-25T22:56:30.266Z,29.17
2019-01-25T22:59:01.524Z,24.83
2019-01-25T23:01:34.550Z,22.50
2019-01-25T23:04:35.765Z,24.10
2019-01-25T23:07:12.479Z,24.90
2019-01-25T23:10:15.592Z,29.17
2019-01-25T23:12:47.002Z,25.63
2019-01-25T23:15:19.641Z,22.23
2019-01-25T23:17:50.913Z,21.97
2019-01-25T23:20:22.318Z,23.40
2019-01-25T23:22:53.609Z,24.03
2019-01-25T23:25:25.137Z,24.97
2019-01-25T23:27:56.377Z,20.20
2019-01-25T23:30:27.729Z,22.80
2019-01-25T23:32:59.261Z,18.37
2019-01-25T23:35:31.518Z,24.27
2019-01-25T23:38:02.802Z,23.50
2019-01-25T23:40:34.067Z,24.67
2019-01-25T23:43:05.293Z,23.63
2019-01-25T23:45:36.569Z,20.37
2019-01-25T23:48:07.898Z,23.30
2019-01-25T23:50:39.188Z,25.10
2019-01-25T23:53:10.396Z,22.47
2019-01-25T23:55:41.934Z,24.70
2019-01-25T23:58:13.198Z,22.90
